Create Tblcommutelog Verified Points Advance Search
| # | Trip ID | Id Commuter | Trip Date | Trip Num | Current Lat | Current Lng | Delta Distance | Current Time | Activity | Activity Confidence | Current Speed | |
|---|---|---|---|---|---|---|---|---|---|---|---|---|
| 73161 | 250427_784221_16652113_1432 | 784221 | (not set) | (not set) | 39.0446411 | -76.6172438 | 15.8639 | 2025-04-27 19:06:37.679 | in_vehicle | 100 | 13.210010103087 | |
| 73162 | 250427_784221_16652113_1432 | 784221 | (not set) | (not set) | 39.0467175 | -76.6203694 | 16.0847 | 2025-04-27 19:06:37.714 | in_vehicle | 100 | 13.388825806682 | |
| 73163 | 250427_784221_16652113_1432 | 784221 | (not set) | (not set) | 39.0488457 | -76.6235525 | 16.3103 | 2025-04-27 19:06:37.749 | in_vehicle | 100 | 13.773279569412 | |
| 73164 | 250427_784221_16652113_1432 | 784221 | (not set) | (not set) | 39.051442 | -76.626264 | 16.5413 | 2025-04-27 19:06:37.754 | in_vehicle | 100 | 13.82692428049 | |
| 73165 | 250427_784221_16652113_1432 | 784221 | (not set) | (not set) | 39.0540841 | -76.6287993 | 16.7689 | 2025-04-27 19:06:37.808 | in_vehicle | 100 | 13.344121880784 | |
| 73166 | 250427_784221_16652113_1432 | 784221 | (not set) | (not set) | 39.0565899 | -76.6312561 | 16.9865 | 2025-04-27 19:06:37.835 | in_vehicle | 100 | 12.977549688414 | |
| 73167 | 250427_784221_16652113_1432 | 784221 | (not set) | (not set) | 39.0588291 | -76.6341273 | 17.2049 | 2025-04-27 19:06:37.838 | in_vehicle | 100 | 13.321769917834 | |
| 73168 | 250427_784221_16652113_1432 | 784221 | (not set) | (not set) | 39.0632128 | -76.6400928 | 17.6486 | 2025-04-27 19:06:37.876 | in_vehicle | 100 | 13.549759939918 | |
| 73169 | 250427_784221_16652113_1432 | 784221 | (not set) | (not set) | 39.0664595 | -76.6404738 | 17.8736 | 2025-04-27 19:06:37.9 | in_vehicle | 100 | 13.920802524878 | |
| 73170 | 250427_784221_16652113_1432 | 784221 | (not set) | (not set) | 38.994693 | -76.5823595 | 11.4452 | 2025-04-27 19:06:37.953 | in_vehicle | 100 | 6.4910100405018 | |
| 73171 | 250427_784221_16652113_1432 | 784221 | (not set) | (not set) | 38.9958545 | -76.5842116 | 11.5731 | 2025-04-27 19:06:37.99 | in_vehicle | 100 | 5.9098590038177 | |
| 73172 | 250427_784221_16652113_1432 | 784221 | (not set) | (not set) | 38.9975989 | -76.5891647 | 11.8661 | 2025-04-27 19:06:37.993 | in_vehicle | 100 | 9.2045383425572 | |
| 73173 | 250427_784221_16652113_1432 | 784221 | (not set) | (not set) | 38.9985421 | -76.5921015 | 12.037 | 2025-04-27 19:06:38.033 | in_vehicle | 100 | 11.520201704114 | |
| 73174 | 250427_784221_16652113_1432 | 784221 | (not set) | (not set) | 39.000266 | -76.5949571 | 12.2314 | 2025-04-27 19:06:38.036 | in_vehicle | 100 | 11.63643191145 | |
| 73175 | 250427_784221_16652113_1432 | 784221 | (not set) | (not set) | 39.002414 | -76.597299 | 12.4259 | 2025-04-27 19:06:38.104 | in_vehicle | 100 | 11.6587838744 | |
| 73176 | 250427_784221_16652113_1432 | 784221 | (not set) | (not set) | 39.0044832 | -76.5996758 | 12.6176 | 2025-04-27 19:06:38.111 | in_vehicle | 100 | 11.703487800299 | |
| 73177 | 250427_784221_16652113_1432 | 784221 | (not set) | (not set) | 39.0132494 | -76.6124129 | 13.5899 | 2025-04-27 19:06:38.167 | in_vehicle | 100 | 12.588625533094 | |
| 73178 | 250427_784221_16652113_1432 | 784221 | (not set) | (not set) | 39.0165098 | -76.6132971 | 13.8199 | 2025-04-27 19:06:38.192 | in_vehicle | 100 | 13.031194399492 | |
| 73179 | 250427_784221_16652113_1432 | 784221 | (not set) | (not set) | 39.0196524 | -76.6141058 | 14.0409 | 2025-04-27 19:06:38.23 | in_vehicle | 100 | 13.518467191789 | |
| 73180 | 250427_784221_16652113_1432 | 784221 | (not set) | (not set) | 39.0760468 | -76.6293407 | 18.7755 | 2025-04-27 19:06:38.317 | in_vehicle | 100 | 13.952095273007 |